sensor_id;sensor_type;location;lat;lon;timestamp;temperature;humidity
6930;DHT22;3504;52.616;13.238;2022-11-25T00:03:02;3.52;88.28
6930;DHT22;3504;52.616;13.238;2022-11-25T00:08:03;3.56;88.27
6930;DHT22;3504;52.616;13.238;2022-11-25T00:13:03;3.62;88.20
6930;DHT22;3504;52.616;13.238;2022-11-25T00:18:04;3.64;88.22
6930;DHT22;3504;52.616;13.238;2022-11-25T00:23:04;3.70;88.11
6930;DHT22;3504;52.616;13.238;2022-11-25T00:28:05;3.73;88.01
6930;DHT22;3504;52.616;13.238;2022-11-25T00:33:05;3.77;87.94
6930;DHT22;3504;52.616;13.238;2022-11-25T00:38:06;3.79;87.93
6930;DHT22;3504;52.616;13.238;2022-11-25T00:43:07;3.80;88.20
6930;DHT22;3504;52.616;13.238;2022-11-25T00:48:26;3.84;88.22
6930;DHT22;3504;52.616;13.238;2022-11-25T00:53:26;3.87;88.30
6930;DHT22;3504;52.616;13.238;2022-11-25T00:58:29;3.89;88.26
6930;DHT22;3504;52.616;13.238;2022-11-25T01:03:30;3.95;88.30
6930;DHT22;3504;52.616;13.238;2022-11-25T01:08:32;3.97;88.11
6930;DHT22;3504;52.616;13.238;2022-11-25T01:13:33;3.98;88.05
6930;DHT22;3504;52.616;13.238;2022-11-25T01:18:34;4.05;87.99
6930;DHT22;3504;52.616;13.238;2022-11-25T01:23:35;4.05;87.95
6930;DHT22;3504;52.616;13.238;2022-11-25T01:28:36;4.04;87.84
6930;DHT22;3504;52.616;13.238;2022-11-25T01:33:37;4.02;87.73
6930;DHT22;3504;52.616;13.238;2022-11-25T01:38:38;3.98;87.56
6930;DHT22;3504;52.616;13.238;2022-11-25T01:43:40;3.94;87.81
6930;DHT22;3504;52.616;13.238;2022-11-25T01:49:02;3.93;87.75
6930;DHT22;3504;52.616;13.238;2022-11-25T01:54:09;3.90;87.63
6930;DHT22;3504;52.616;13.238;2022-11-25T01:59:10;3.90;88.00
6930;DHT22;3504;52.616;13.238;2022-11-25T02:04:13;3.91;87.99
6930;DHT22;3504;52.616;13.238;2022-11-25T02:09:17;3.93;88.21
6930;DHT22;3504;52.616;13.238;2022-11-25T02:14:19;3.87;88.46
6930;DHT22;3504;52.616;13.238;2022-11-25T02:19:37;3.86;88.61
6930;DHT22;3504;52.616;13.238;2022-11-25T02:24:43;3.80;88.70
6930;DHT22;3504;52.616;13.238;2022-11-25T02:29:47;3.76;88.46
6930;DHT22;3504;52.616;13.238;2022-11-25T02:34:48;3.69;88.70
6930;DHT22;3504;52.616;13.238;2022-11-25T02:39:50;3.71;88.92
6930;DHT22;3504;52.616;13.238;2022-11-25T02:44:51;3.73;89.01
6930;DHT22;3504;52.616;13.238;2022-11-25T02:49:51;3.76;89.37
6930;DHT22;3504;52.616;13.238;2022-11-25T02:54:52;3.84;89.95
6930;DHT22;3504;52.616;13.238;2022-11-25T02:59:53;3.89;90.89
6930;DHT22;3504;52.616;13.238;2022-11-25T03:04:53;3.97;90.75
6930;DHT22;3504;52.616;13.238;2022-11-25T03:09:54;4.00;90.91
6930;DHT22;3504;52.616;13.238;2022-11-25T03:14:55;4.08;90.61
6930;DHT22;3504;52.616;13.238;2022-11-25T03:19:56;4.14;90.72
6930;DHT22;3504;52.616;13.238;2022-11-25T03:24:57;4.18;90.42
6930;DHT22;3504;52.616;13.238;2022-11-25T03:29:58;4.21;90.26
6930;DHT22;3504;52.616;13.238;2022-11-25T03:34:58;4.24;90.31
6930;DHT22;3504;52.616;13.238;2022-11-25T03:39:59;4.25;90.18
6930;DHT22;3504;52.616;13.238;2022-11-25T03:45:00;4.29;90.01
6930;DHT22;3504;52.616;13.238;2022-11-25T03:50:02;4.36;89.96
6930;DHT22;3504;52.616;13.238;2022-11-25T03:55:05;4.38;89.62
6930;DHT22;3504;52.616;13.238;2022-11-25T04:00:09;4.42;89.57
6930;DHT22;3504;52.616;13.238;2022-11-25T04:05:23;4.42;89.38
6930;DHT22;3504;52.616;13.238;2022-11-25T04:10:24;4.44;89.61
6930;DHT22;3504;52.616;13.238;2022-11-25T04:15:25;4.44;89.50
6930;DHT22;3504;52.616;13.238;2022-11-25T04:20:30;4.39;89.84
6930;DHT22;3504;52.616;13.238;2022-11-25T04:25:36;4.42;89.99
6930;DHT22;3504;52.616;13.238;2022-11-25T04:30:45;4.44;89.82
6930;DHT22;3504;52.616;13.238;2022-11-25T04:35:46;4.46;89.83
6930;DHT22;3504;52.616;13.238;2022-11-25T04:40:47;4.49;89.86
6930;DHT22;3504;52.616;13.238;2022-11-25T04:45:51;4.52;89.26
6930;DHT22;3504;52.616;13.238;2022-11-25T04:50:52;4.46;90.03
6930;DHT22;3504;52.616;13.238;2022-11-25T04:55:53;4.53;89.92
6930;DHT22;3504;52.616;13.238;2022-11-25T05:00:54;4.56;89.73
6930;DHT22;3504;52.616;13.238;2022-11-25T05:05:56;4.46;89.94
6930;DHT22;3504;52.616;13.238;2022-11-25T05:10:58;4.51;90.10
6930;DHT22;3504;52.616;13.238;2022-11-25T05:15:59;4.52;89.87
6930;DHT22;3504;52.616;13.238;2022-11-25T05:21:02;4.53;89.93
6930;DHT22;3504;52.616;13.238;2022-11-25T05:26:05;4.61;89.99
6930;DHT22;3504;52.616;13.238;2022-11-25T05:31:13;4.65;89.80
6930;DHT22;3504;52.616;13.238;2022-11-25T05:36:14;4.63;89.72
6930;DHT22;3504;52.616;13.238;2022-11-25T05:41:18;4.66;89.71
6930;DHT22;3504;52.616;13.238;2022-11-25T05:46:20;4.66;89.60
6930;DHT22;3504;52.616;13.238;2022-11-25T05:51:25;4.69;89.72
6930;DHT22;3504;52.616;13.238;2022-11-25T05:56:28;4.72;89.62
6930;DHT22;3504;52.616;13.238;2022-11-25T06:01:43;4.71;89.64
6930;DHT22;3504;52.616;13.238;2022-11-25T06:06:44;4.69;89.66
6930;DHT22;3504;52.616;13.238;2022-11-25T06:11:44;4.63;89.43
6930;DHT22;3504;52.616;13.238;2022-11-25T06:16:45;4.56;89.24
6930;DHT22;3504;52.616;13.238;2022-11-25T06:21:59;4.48;89.38
6930;DHT22;3504;52.616;13.238;2022-11-25T06:27:01;4.45;89.17
6930;DHT22;3504;52.616;13.238;2022-11-25T06:32:02;4.36;88.76
6930;DHT22;3504;52.616;13.238;2022-11-25T06:37:28;4.26;88.57
6930;DHT22;3504;52.616;13.238;2022-11-25T06:42:29;4.21;88.30
6930;DHT22;3504;52.616;13.238;2022-11-25T06:47:29;4.11;87.98
6930;DHT22;3504;52.616;13.238;2022-11-25T06:52:30;4.02;88.13
6930;DHT22;3504;52.616;13.238;2022-11-25T06:57:31;3.93;88.08
6930;DHT22;3504;52.616;13.238;2022-11-25T07:02:31;3.84;87.90
6930;DHT22;3504;52.616;13.238;2022-11-25T07:07:32;3.73;87.93
6930;DHT22;3504;52.616;13.238;2022-11-25T07:12:32;3.69;87.59
6930;DHT22;3504;52.616;13.238;2022-11-25T07:17:33;3.64;87.71
6930;DHT22;3504;52.616;13.238;2022-11-25T07:22:33;3.62;87.48
6930;DHT22;3504;52.616;13.238;2022-11-25T07:27:34;3.60;87.94
6930;DHT22;3504;52.616;13.238;2022-11-25T07:32:34;3.58;88.36
6930;DHT22;3504;52.616;13.238;2022-11-25T07:37:35;3.52;88.30
6930;DHT22;3504;52.616;13.238;2022-11-25T07:42:35;3.43;88.60
6930;DHT22;3504;52.616;13.238;2022-11-25T07:47:36;3.46;88.92
6930;DHT22;3504;52.616;13.238;2022-11-25T07:52:38;3.53;88.41
6930;DHT22;3504;52.616;13.238;2022-11-25T07:57:39;3.58;89.07
6930;DHT22;3504;52.616;13.238;2022-11-25T08:02:39;3.70;89.51
6930;DHT22;3504;52.616;13.238;2022-11-25T08:07:40;3.89;89.88
6930;DHT22;3504;52.616;13.238;2022-11-25T08:12:40;4.07;90.36
6930;DHT22;3504;52.616;13.238;2022-11-25T08:17:41;4.28;90.58
6930;DHT22;3504;52.616;13.238;2022-11-25T08:22:42;4.48;90.67
6930;DHT22;3504;52.616;13.238;2022-11-25T08:27:42;4.63;90.50
6930;DHT22;3504;52.616;13.238;2022-11-25T08:32:43;4.80;90.51
6930;DHT22;3504;52.616;13.238;2022-11-25T08:37:44;4.92;90.36
6930;DHT22;3504;52.616;13.238;2022-11-25T08:42:44;5.04;90.32
6930;DHT22;3504;52.616;13.238;2022-11-25T08:47:45;5.27;90.32
6930;DHT22;3504;52.616;13.238;2022-11-25T08:52:45;5.49;90.47
6930;DHT22;3504;52.616;13.238;2022-11-25T08:57:46;5.72;90.21
6930;DHT22;3504;52.616;13.238;2022-11-25T09:02:47;5.96;89.61
6930;DHT22;3504;52.616;13.238;2022-11-25T09:07:47;6.16;89.22
6930;DHT22;3504;52.616;13.238;2022-11-25T09:12:48;6.36;88.74
6930;DHT22;3504;52.616;13.238;2022-11-25T09:17:48;6.52;88.60
6930;DHT22;3504;52.616;13.238;2022-11-25T09:22:58;6.67;88.09
6930;DHT22;3504;52.616;13.238;2022-11-25T09:27:59;6.84;87.70
6930;DHT22;3504;52.616;13.238;2022-11-25T09:33:00;7.02;87.13
6930;DHT22;3504;52.616;13.238;2022-11-25T09:38:00;7.24;86.85
6930;DHT22;3504;52.616;13.238;2022-11-25T09:43:17;7.39;86.28
6930;DHT22;3504;52.616;13.238;2022-11-25T09:49:18;7.48;85.73
6930;DHT22;3504;52.616;13.238;2022-11-25T09:54:33;7.68;85.47
6930;DHT22;3504;52.616;13.238;2022-11-25T09:59:44;7.68;84.88
6930;DHT22;3504;52.616;13.238;2022-11-25T10:04:51;7.83;84.57
6930;DHT22;3504;52.616;13.238;2022-11-25T10:09:55;8.12;84.15
6930;DHT22;3504;52.616;13.238;2022-11-25T10:15:11;8.21;83.75
6930;DHT22;3504;52.616;13.238;2022-11-25T10:20:20;8.42;83.74
6930;DHT22;3504;52.616;13.238;2022-11-25T10:25:33;8.57;82.56
6930;DHT22;3504;52.616;13.238;2022-11-25T10:31:16;8.70;82.33
6930;DHT22;3504;52.616;13.238;2022-11-25T10:36:34;8.66;81.69
6930;DHT22;3504;52.616;13.238;2022-11-25T10:41:51;8.69;81.44
6930;DHT22;3504;52.616;13.238;2022-11-25T10:47:30;8.70;81.23
6930;DHT22;3504;52.616;13.238;2022-11-25T10:52:40;8.74;81.20
6930;DHT22;3504;52.616;13.238;2022-11-25T10:57:43;8.79;81.04
6930;DHT22;3504;52.616;13.238;2022-11-25T11:02:44;8.70;80.77
6930;DHT22;3504;52.616;13.238;2022-11-25T11:08:08;8.79;80.72
6930;DHT22;3504;52.616;13.238;2022-11-25T11:13:26;8.83;80.63
6930;DHT22;3504;52.616;13.238;2022-11-25T11:23:50;8.84;79.90
6930;DHT22;3504;52.616;13.238;2022-11-25T11:29:10;8.83;79.80
6930;DHT22;3504;52.616;13.238;2022-11-25T11:34:52;8.83;80.21
6930;DHT22;3504;52.616;13.238;2022-11-25T11:55:53;8.86;79.67
6930;DHT22;3504;52.616;13.238;2022-11-25T12:01:10;8.76;79.05
6930;DHT22;3504;52.616;13.238;2022-11-25T12:06:12;8.77;79.73
6930;DHT22;3504;52.616;13.238;2022-11-25T12:11:20;8.74;80.02
6930;DHT22;3504;52.616;13.238;2022-11-25T12:16:39;8.69;80.06
6930;DHT22;3504;52.616;13.238;2022-11-25T12:21:54;8.59;80.03
6930;DHT22;3504;52.616;13.238;2022-11-25T12:43:26;8.29;80.58
6930;DHT22;3504;52.616;13.238;2022-11-25T12:48:30;8.26;81.06
6930;DHT22;3504;52.616;13.238;2022-11-25T12:59:27;8.15;81.39
6930;DHT22;3504;52.616;13.238;2022-11-25T13:05:07;8.16;81.26
6930;DHT22;3504;52.616;13.238;2022-11-25T13:15:42;8.07;81.59
6930;DHT22;3504;52.616;13.238;2022-11-25T13:20:54;8.02;81.44
6930;DHT22;3504;52.616;13.238;2022-11-25T13:31:35;7.98;81.76
6930;DHT22;3504;52.616;13.238;2022-11-25T13:36:55;7.91;81.76
6930;DHT22;3504;52.616;13.238;2022-11-25T13:42:21;7.87;82.09
6930;DHT22;3504;52.616;13.238;2022-11-25T13:47:47;7.77;82.23
6930;DHT22;3504;52.616;13.238;2022-11-25T13:53:00;7.74;82.51
6930;DHT22;3504;52.616;13.238;2022-11-25T13:58:23;7.68;82.61
6930;DHT22;3504;52.616;13.238;2022-11-25T14:08:51;7.64;82.84
6930;DHT22;3504;52.616;13.238;2022-11-25T14:19:51;7.56;83.13
6930;DHT22;3504;52.616;13.238;2022-11-25T14:25:14;7.54;83.21
6930;DHT22;3504;52.616;13.238;2022-11-25T14:30:16;7.46;83.41
6930;DHT22;3504;52.616;13.238;2022-11-25T14:35:22;7.37;83.47
6930;DHT22;3504;52.616;13.238;2022-11-25T14:40:40;7.24;84.06
6930;DHT22;3504;52.616;13.238;2022-11-25T14:45:41;7.24;84.09
6930;DHT22;3504;52.616;13.238;2022-11-25T14:50:58;7.16;84.55
6930;DHT22;3504;52.616;13.238;2022-11-25T14:56:00;7.15;84.58
6930;DHT22;3504;52.616;13.238;2022-11-25T15:01:06;7.16;84.61
6930;DHT22;3504;52.616;13.238;2022-11-25T15:06:11;7.13;84.81
6930;DHT22;3504;52.616;13.238;2022-11-25T15:11:19;7.05;85.20
6930;DHT22;3504;52.616;13.238;2022-11-25T15:16:25;7.08;85.23
6930;DHT22;3504;52.616;13.238;2022-11-25T15:21:38;7.05;85.24
6930;DHT22;3504;52.616;13.238;2022-11-25T15:26:40;7.05;85.25
6930;DHT22;3504;52.616;13.238;2022-11-25T15:31:50;7.02;85.54
6930;DHT22;3504;52.616;13.238;2022-11-25T15:36:52;6.99;85.78
6930;DHT22;3504;52.616;13.238;2022-11-25T15:41:56;7.01;85.81
6930;DHT22;3504;52.616;13.238;2022-11-25T15:47:17;7.05;85.72
6930;DHT22;3504;52.616;13.238;2022-11-25T15:52:19;7.05;85.61
6930;DHT22;3504;52.616;13.238;2022-11-25T15:57:30;6.93;86.30
6930;DHT22;3504;52.616;13.238;2022-11-25T16:02:38;6.91;86.43
6930;DHT22;3504;52.616;13.238;2022-11-25T16:18:23;6.96;86.27
6930;DHT22;3504;52.616;13.238;2022-11-25T16:23:28;6.98;86.21
6930;DHT22;3504;52.616;13.238;2022-11-25T16:28:29;6.96;86.28
6930;DHT22;3504;52.616;13.238;2022-11-25T16:33:29;7.01;86.27
6930;DHT22;3504;52.616;13.238;2022-11-25T16:38:30;7.01;86.25
6930;DHT22;3504;52.616;13.238;2022-11-25T16:43:30;7.01;86.10
6930;DHT22;3504;52.616;13.238;2022-11-25T16:48:31;6.98;86.56
6930;DHT22;3504;52.616;13.238;2022-11-25T16:53:31;7.02;86.45
6930;DHT22;3504;52.616;13.238;2022-11-25T16:58:32;7.03;86.44
6930;DHT22;3504;52.616;13.238;2022-11-25T17:03:32;7.05;86.35
6930;DHT22;3504;52.616;13.238;2022-11-25T17:08:33;7.03;86.35
6930;DHT22;3504;52.616;13.238;2022-11-25T17:13:36;7.05;86.49
6930;DHT22;3504;52.616;13.238;2022-11-25T17:18:38;7.02;86.57
6930;DHT22;3504;52.616;13.238;2022-11-25T17:23:38;7.03;86.59
6930;DHT22;3504;52.616;13.238;2022-11-25T17:28:39;7.03;86.60
6930;DHT22;3504;52.616;13.238;2022-11-25T17:33:40;7.02;86.71
6930;DHT22;3504;52.616;13.238;2022-11-25T17:38:45;7.02;86.74
6930;DHT22;3504;52.616;13.238;2022-11-25T17:43:48;7.03;86.81
6930;DHT22;3504;52.616;13.238;2022-11-25T17:48:49;7.01;86.77
6930;DHT22;3504;52.616;13.238;2022-11-25T17:53:50;7.03;86.88
6930;DHT22;3504;52.616;13.238;2022-11-25T17:58:52;7.05;86.84
6930;DHT22;3504;52.616;13.238;2022-11-25T18:03:53;7.05;86.88
6930;DHT22;3504;52.616;13.238;2022-11-25T18:08:53;7.02;86.90
6930;DHT22;3504;52.616;13.238;2022-11-25T18:13:54;7.01;86.99
6930;DHT22;3504;52.616;13.238;2022-11-25T18:18:55;7.06;87.05
6930;DHT22;3504;52.616;13.238;2022-11-25T18:23:55;7.06;87.12
6930;DHT22;3504;52.616;13.238;2022-11-25T18:28:56;7.05;87.25
6930;DHT22;3504;52.616;13.238;2022-11-25T18:33:56;7.05;87.33
6930;DHT22;3504;52.616;13.238;2022-11-25T18:38:57;7.06;87.34
6930;DHT22;3504;52.616;13.238;2022-11-25T18:43:59;7.08;87.44
6930;DHT22;3504;52.616;13.238;2022-11-25T18:49:00;7.08;87.74
6930;DHT22;3504;52.616;13.238;2022-11-25T18:54:01;7.06;87.82
6930;DHT22;3504;52.616;13.238;2022-11-25T18:59:02;7.08;87.70
6930;DHT22;3504;52.616;13.238;2022-11-25T19:04:04;7.09;87.77
6930;DHT22;3504;52.616;13.238;2022-11-25T19:09:04;7.11;87.73
6930;DHT22;3504;52.616;13.238;2022-11-25T19:14:16;7.12;87.76
6930;DHT22;3504;52.616;13.238;2022-11-25T19:19:19;7.12;87.77
6930;DHT22;3504;52.616;13.238;2022-11-25T19:24:20;7.09;87.99
6930;DHT22;3504;52.616;13.238;2022-11-25T19:29:32;7.09;88.05
6930;DHT22;3504;52.616;13.238;2022-11-25T19:34:40;7.12;88.02
6930;DHT22;3504;52.616;13.238;2022-11-25T19:39:43;7.11;88.08
6930;DHT22;3504;52.616;13.238;2022-11-25T19:44:45;7.11;88.28
6930;DHT22;3504;52.616;13.238;2022-11-25T19:49:46;7.13;88.24
6930;DHT22;3504;52.616;13.238;2022-11-25T19:54:47;7.11;88.38
6930;DHT22;3504;52.616;13.238;2022-11-25T19:59:48;7.12;88.34
6930;DHT22;3504;52.616;13.238;2022-11-25T20:04:53;7.12;88.53
6930;DHT22;3504;52.616;13.238;2022-11-25T20:09:55;7.12;88.55
6930;DHT22;3504;52.616;13.238;2022-11-25T20:14:58;7.12;88.50
6930;DHT22;3504;52.616;13.238;2022-11-25T20:20:18;7.12;88.56
6930;DHT22;3504;52.616;13.238;2022-11-25T20:25:20;7.12;88.49
6930;DHT22;3504;52.616;13.238;2022-11-25T20:30:26;7.12;88.54
6930;DHT22;3504;52.616;13.238;2022-11-25T20:35:27;7.13;88.38
6930;DHT22;3504;52.616;13.238;2022-11-25T20:40:42;7.15;88.56
6930;DHT22;3504;52.616;13.238;2022-11-25T20:45:43;7.16;88.54
6930;DHT22;3504;52.616;13.238;2022-11-25T20:50:43;7.16;88.54
6930;DHT22;3504;52.616;13.238;2022-11-25T20:55:44;7.16;88.56
6930;DHT22;3504;52.616;13.238;2022-11-25T21:00:45;7.19;88.63
6930;DHT22;3504;52.616;13.238;2022-11-25T21:05:48;7.19;88.80
6930;DHT22;3504;52.616;13.238;2022-11-25T21:10:51;7.19;88.89
6930;DHT22;3504;52.616;13.238;2022-11-25T21:15:53;7.19;88.84
6930;DHT22;3504;52.616;13.238;2022-11-25T21:20:54;7.23;88.81
6930;DHT22;3504;52.616;13.238;2022-11-25T21:26:15;7.22;88.75
6930;DHT22;3504;52.616;13.238;2022-11-25T21:31:22;7.26;88.87
6930;DHT22;3504;52.616;13.238;2022-11-25T21:36:27;7.26;89.02
6930;DHT22;3504;52.616;13.238;2022-11-25T21:41:28;7.29;89.00
6930;DHT22;3504;52.616;13.238;2022-11-25T21:46:29;7.29;88.96
6930;DHT22;3504;52.616;13.238;2022-11-25T21:51:29;7.32;89.04
6930;DHT22;3504;52.616;13.238;2022-11-25T21:56:32;7.29;89.03
6930;DHT22;3504;52.616;13.238;2022-11-25T22:01:36;7.32;88.98
6930;DHT22;3504;52.616;13.238;2022-11-25T22:06:37;7.30;89.07
6930;DHT22;3504;52.616;13.238;2022-11-25T22:11:42;7.30;89.09
6930;DHT22;3504;52.616;13.238;2022-11-25T22:16:43;7.29;89.34
6930;DHT22;3504;52.616;13.238;2022-11-25T22:21:43;7.30;89.40
6930;DHT22;3504;52.616;13.238;2022-11-25T22:26:50;7.33;89.48
6930;DHT22;3504;52.616;13.238;2022-11-25T22:31:50;7.33;89.57
6930;DHT22;3504;52.616;13.238;2022-11-25T22:36:51;7.32;89.42
6930;DHT22;3504;52.616;13.238;2022-11-25T22:42:05;7.33;89.80
6930;DHT22;3504;52.616;13.238;2022-11-25T22:52:22;7.37;89.96
6930;DHT22;3504;52.616;13.238;2022-11-25T22:57:24;7.36;90.12
6930;DHT22;3504;52.616;13.238;2022-11-25T23:02:31;7.40;90.31
6930;DHT22;3504;52.616;13.238;2022-11-25T23:07:33;7.40;90.22
6930;DHT22;3504;52.616;13.238;2022-11-25T23:12:33;7.40;90.31
6930;DHT22;3504;52.616;13.238;2022-11-25T23:17:34;7.42;90.42
6930;DHT22;3504;52.616;13.238;2022-11-25T23:22:34;7.47;90.45
6930;DHT22;3504;52.616;13.238;2022-11-25T23:27:35;7.47;90.45
6930;DHT22;3504;52.616;13.238;2022-11-25T23:32:35;7.47;90.87
6930;DHT22;3504;52.616;13.238;2022-11-25T23:37:36;7.51;90.85
6930;DHT22;3504;52.616;13.238;2022-11-25T23:42:36;7.54;90.61
6930;DHT22;3504;52.616;13.238;2022-11-25T23:47:37;7.54;90.41
6930;DHT22;3504;52.616;13.238;2022-11-25T23:52:38;7.54;90.50
6930;DHT22;3504;52.616;13.238;2022-11-25T23:57:39;7.57;90.59
